Terminal Aerodrome Forecast
Issued by NWS Wilmington, OH

Current Version | Previous Version | Graphics & Text | Print | Product List | Glossary On
Versions: 1 2 3 4 5 6 7 8 9 10 11 12 13 14 15 16 17 18 19 20 21 22
000
FTUS41 KILN 272215 AAA
TAFDAY
TAF AMD
KDAY 272215Z 2722/2818 05007KT P6SM VCSH FEW025 BKN035
      TEMPO 2722/2724 5SM -SHRA BR BKN025
     FM280000 07004KT P6SM FEW040 BKN120
     FM280600 07003KT 5SM BR FEW040 SCT250
     FM281300 09005KT P6SM FEW040 SCT250=

USA.gov is the U.S. government's official web portal to all federal, state and local government web resources and services.